Skip Navigation Links
NOAA logo - Click to go to the NOAA homepage
NOAA's National Weather Service
Alaska Aviation Weather Unit
  NWS logo - Click to go to the NWS homepage
Left Navbar Graphic     02 AKDT = 10 GMT

   
NOAA is celebrating 200 years of science, service, and stewardship. Visit the NOAA 200th celebration Web site to learn more.
USA.gov is the U.S. Government's official Web portal to all Federal, state and local government Web resources and services.
Facebook
NWS on Facebook

AAWU Home :: Display TAF Add Bookmark
METAR PAKV 270453Z AUTO 03004KT 10SM UP CLR M10/M18 A2990 RMK AO2 SLP132
     P0000 T11001183 TSNO $=

METAR PAKV 270553Z AUTO 00000KT 10SM UP CLR M11/M19 A2990 RMK AO2 SLP131
     P0000 60000 T11111189 11044 21111 56003 TSNO $=

METAR PAKV 270653Z AUTO 00000KT 10SM UP CLR M16/M21 A2990 RMK AO2 SLP131
     P0000 T11611211 TSNO $=

METAR PAKV 270753Z AUTO 22003KT 10SM UP CLR M19/M22 A2990 RMK AO2
     UPE0656B13E30B50 SLP131 P0000 T11891217 TSNO $=

METAR PAKV 270853Z AUTO 22003KT 10SM CLR M20/M24 A2989 RMK AO2 UPE0757
     SLP129 P0000 60000 T12001239 410441278 58002 TSNO $=

METAR PAKV 270953Z AUTO 00000KT 10SM CLR M22/M24 A2988 RMK AO2 SLP125
     T12171244 TSNO $=


NOAA's National Weather Service
Alaska Aviation Weather Unit
6930 Sand Lake Road
Anchorage, AK 99502-1845
Disclaimer
Credits
Glossary
Privacy Policy
About Us
Career Opportunities
Contact AAWU Internet Services Site last modified: April, 17th 2012